METAR Data
IDs: Format: Raw Decoded Include TAF

Data at: 1551 UTC 18 Aug 2019

PAIL 181453Z 34008KT 10SM CLR 10/06 A3016 RMK AO2 SLP215 T01000061 58007
PAIL 181353Z 34006KT 10SM CLR 10/07 A3018 RMK AO2 SLP220 T01000067
PAIL 181253Z AUTO 34005KT 7SM CLR 11/07 A3018 RMK AO2 SLP221 T01110067 TSNO
PAIL 181153Z AUTO 36008KT 8SM CLR 13/06 A3019 RMK AO2 SLP222 T01280061 10189 20122 56004 TSNO
PAIL 181053Z AUTO 01003KT 7SM CLR 13/07 A3019 RMK AO2 SLP223 T01280067 TSNO
PAIL 180953Z AUTO 02006KT 7SM CLR 13/07 A3019 RMK AO2 SLP223 T01330067 TSNO
PAIL 180853Z AUTO 01006KT 8SM CLR 14/07 A3020 RMK AO2 SLP227 T01440072 402330139 58003 TSNO
PAIL 180753Z AUTO 33009KT 8SM CLR 16/08 A3021 RMK AO2 SLP229 T01560078 TSNO
PAIL 180653Z AUTO 35004KT 8SM CLR 16/08 A3022 RMK AO2 SLP232 T01560078 TSNO
PAIL 180553Z AUTO 34008G16KT 7SM CLR 18/08 A3021 RMK AO2 SLP230 T01830083 10233 20183 58007 TSNO
PAIL 180453Z 33005KT 10SM CLR 21/08 A3022 RMK AO2 SLP232 T02060078
PAIL 180353Z 34011G16KT 10SM CLR 22/07 A3023 RMK AO2 SLP236 T02220072
PAIL 180253Z 32009G18KT 10SM CLR 23/07 A3023 RMK AO2 SLP237 T02280067 57010
PAIL 180153Z 35009G18KT 10SM CLR 23/07 A3024 RMK AO2 SLP240 T02330072
PAIL 180053Z 36010G16KT 7SM CLR 23/07 A3025 RMK AO2 SLP245 T02330072
PAIL 172353Z 32015G20KT 10SM CLR 22/08 A3026 RMK AO2 SLP247 T02220078 10228 20172 58010
PAIL 172253Z 35012G18KT 8SM CLR 22/06 A3027 RMK AO2 SLP252 T02170061
PAIL 172153Z 35013G20KT 10SM CLR 22/06 A3028 RMK AO2 SLP255 T02170056
PAIL 172053Z 36009KT 8SM CLR 21/05 A3029 RMK AO2 SLP257 T02060050 58003
PAIL 171953Z 36008KT 9SM CLR 19/06 A3029 RMK AO2 SLP259 T01940061
PAIL 171853Z 02007G18KT 10SM CLR 18/06 A3030 RMK AO2 SLP260 T01830061
PAIL 171753Z 35010KT 10SM CLR 17/06 A3030 RMK AO2 SLP260 T01720061 10178 20139 58002
PAIL 171653Z 33009KT 9SM CLR 16/08 A3030 RMK AO2 SLP261 T01610078
PAIL 171553Z 00000KT 10SM CLR 14/08 A3031 RMK AO2 SLP263 T01440083
PAIL 171453Z 30010KT 10SM CLR 15/09 A3030 RMK AO2 SLP262 T01500089 58006
PAIL 171353Z 32005KT 10SM CLR 15/10 A3033 RMK AO2 SLP273 T01500100
PAIL 171253Z AUTO 30012G15KT 10SM BKN100 15/11 A3033 RMK AO2 SLP271 T01500106 TSNO
PAIL 171153Z AUTO 31011KT 10SM CLR 15/11 A3032 RMK AO2 SLP268 T01500111 10211 20150 58005 TSNO
PAIL 171053Z AUTO 31011G21KT 10SM CLR 16/11 A3034 RMK AO2 SLP273 T01560111 TSNO
PAIL 170953Z AUTO 31010KT 10SM CLR 16/11 A3034 RMK AO2 SLP274 T01610111 TSNO
PAIL 170853Z AUTO 31013G19KT 9SM FEW036 SCT060 17/11 A3034 RMK AO2 SLP273 T01720111 402390133 58000 TSNO
PAIL 170753Z AUTO 32010KT 9SM BKN060 18/11 A3034 RMK AO2 SLP275 T01830106 TSNO
PAIL 170653Z AUTO 32006KT 9SM FEW050 19/11 A3034 RMK AO2 SLP273 T01940111 TSNO
PAIL 170553Z AUTO 32007KT 10SM FEW055 20/11 A3034 RMK AO2 SLP274 T02000106 10239 20200 56005 TSNO
PAIL 170453Z 31007KT 10SM CLR 21/11 A3034 RMK AO2 SLP275 T02110111
PAIL 170353Z 30012G19KT 8SM CLR 22/11 A3035 RMK AO2 SLP277 T02220106